Time;durP1;ratioP1;P1;durP2;ratioP2;P2;SDS_P1;SDS_P2;PMS_P1;PMS_P2;Temp;Humidity;BMP_temperature;BMP_pressure;BME280_temperature;BME280_humidity;BME280_pressure;Samples;Min_cycle;Max_cycle;Signal;HPM_P1;HPM_P2
2023/05/01 00:02:04;;;;;;;;;;;11.10;61.00;;;;;;5028514;28;20558;-76
2023/05/01 00:04:32;;;;;;;;;;;11.10;61.00;;;;;;5011074;28;20012;-76
2023/05/01 00:06:57;;;;;;;;;;;11.10;61.10;;;;;;5000390;28;19921;-76
2023/05/01 00:09:22;;;;;;;;;;;11.10;61.20;;;;;;5023927;28;19981;-75
2023/05/01 00:11:48;;;;;;;;;;;11.00;61.10;;;;;;5011546;28;20643;-76
2023/05/01 00:14:13;;;;;;;;;;;11.00;61.20;;;;;;5010785;28;19921;-76
2023/05/01 00:16:39;;;;;;;;;;;10.90;61.20;;;;;;5013838;28;19929;-76
2023/05/01 00:19:04;;;;;;;;;;;10.90;61.20;;;;;;5010426;28;19921;-76
2023/05/01 00:21:30;;;;;;;;;;;10.90;61.30;;;;;;5012418;28;19929;-76
2023/05/01 00:23:56;;;;;;;;;;;10.80;61.20;;;;;;5013347;28;20011;-75
2023/05/01 00:26:21;;;;;;;;;;;10.90;61.30;;;;;;5006868;28;19928;-76
2023/05/01 00:28:47;;;;;;;;;;;10.80;61.40;;;;;;5010946;28;20418;-75
2023/05/01 00:31:12;;;;;;;;;;;10.80;61.40;;;;;;5041408;28;20010;-76
2023/05/01 00:33:38;;;;;;;;;;;10.80;61.40;;;;;;5015967;28;19922;-75
2023/05/01 00:36:03;;;;;;;;;;;10.70;61.40;;;;;;5008702;28;20465;-76
2023/05/01 00:38:29;;;;;;;;;;;10.70;61.40;;;;;;5025668;28;19916;-76
2023/05/01 00:40:54;;;;;;;;;;;10.70;61.50;;;;;;5001300;28;20423;-75
2023/05/01 00:43:20;;;;;;;;;;;10.70;61.50;;;;;;5011372;28;20008;-76
2023/05/01 00:45:45;;;;;;;;;;;10.60;61.50;;;;;;5011430;28;19944;-75
2023/05/01 00:48:11;;;;;;;;;;;10.60;61.60;;;;;;5013649;28;19921;-75
2023/05/01 00:50:36;;;;;;;;;;;10.60;61.60;;;;;;5011556;28;19920;-76
2023/05/01 00:53:02;;;;;;;;;;;10.50;61.50;;;;;;5012961;28;19943;-76
2023/05/01 00:55:28;;;;;;;;;;;10.50;61.60;;;;;;5011238;28;19975;-75
2023/05/01 00:57:54;;;;;;;;;;;10.50;61.70;;;;;;5006636;28;21144;-76
2023/05/01 01:00:22;;;;;;;;;;;10.50;61.60;;;;;;5008338;28;19922;-75
2023/05/01 01:02:47;;;;;;;;;;;10.50;61.70;;;;;;5016800;28;20703;-76
2023/05/01 01:05:13;;;;;;;;;;;10.40;61.70;;;;;;5027728;28;20347;-76
2023/05/01 01:07:54;;;;;;;;;;;10.40;61.70;;;;;;5025179;28;19921;-76
2023/05/01 01:10:39;;;;;;;;;;;10.40;61.70;;;;;;5018074;28;19921;-75
2023/05/01 01:13:11;;;;;;;;;;;10.40;61.80;;;;;;5029487;28;20353;-76
2023/05/01 01:15:39;;;;;;;;;;;10.30;61.70;;;;;;5047833;28;19924;-75
2023/05/01 01:18:08;;;;;;;;;;;10.30;61.80;;;;;;5012708;28;19929;-75
2023/05/01 01:20:40;;;;;;;;;;;10.30;61.90;;;;;;5027941;28;19931;-75
2023/05/01 01:23:17;;;;;;;;;;;10.20;61.80;;;;;;5014433;28;19921;-76
2023/05/01 01:25:48;;;;;;;;;;;10.20;61.80;;;;;;5005981;28;19999;-75
2023/05/01 01:28:20;;;;;;;;;;;10.20;61.90;;;;;;5014412;28;20032;-76
2023/05/01 01:31:04;;;;;;;;;;;10.20;61.90;;;;;;4991681;28;20004;-76
2023/05/01 01:33:48;;;;;;;;;;;10.20;61.90;;;;;;5012254;28;20601;-75
2023/05/01 01:36:18;;;;;;;;;;;10.10;61.90;;;;;;5035805;28;20457;-76
2023/05/01 01:38:44;;;;;;;;;;;10.10;62.00;;;;;;5028346;28;20021;-75
2023/05/01 01:41:20;;;;;;;;;;;10.00;62.00;;;;;;5029354;28;20411;-76
2023/05/01 01:43:48;;;;;;;;;;;10.00;62.00;;;;;;5005092;28;20706;-75
2023/05/01 01:46:15;;;;;;;;;;;10.00;62.00;;;;;;5007809;28;19921;-76
2023/05/01 01:48:41;;;;;;;;;;;9.90;62.10;;;;;;5035348;28;20574;-75
2023/05/01 01:51:08;;;;;;;;;;;9.90;62.10;;;;;;5010962;28;19917;-76
2023/05/01 01:53:34;;;;;;;;;;;9.90;62.10;;;;;;4993472;28;19921;-76
2023/05/01 01:56:00;;;;;;;;;;;9.90;62.10;;;;;;5006889;28;19924;-76
2023/05/01 01:58:25;;;;;;;;;;;9.90;62.20;;;;;;5007145;28;19918;-76
2023/05/01 02:00:51;;;;;;;;;;;9.80;63.00;;;;;;5004553;28;19921;-76
2023/05/01 02:03:16;;;;;;;;;;;9.80;62.20;;;;;;5027308;28;19952;-76
2023/05/01 02:05:42;;;;;;;;;;;9.80;62.20;;;;;;5011752;28;19917;-76
2023/05/01 02:08:07;;;;;;;;;;;9.80;62.20;;;;;;5012653;28;19923;-76
2023/05/01 02:10:33;;;;;;;;;;;9.70;62.20;;;;;;5011760;28;19918;-76
2023/05/01 02:12:58;;;;;;;;;;;9.70;62.30;;;;;;5010925;28;19928;-75
2023/05/01 02:15:24;;;;;;;;;;;9.70;62.30;;;;;;5008481;28;20435;-75
2023/05/01 02:17:50;;;;;;;;;;;9.70;62.40;;;;;;5028355;28;19925;-75
2023/05/01 02:20:15;;;;;;;;;;;9.60;62.40;;;;;;5030559;28;20109;-75
2023/05/01 02:22:41;;;;;;;;;;;9.60;62.40;;;;;;5019966;28;19924;-76
2023/05/01 02:25:10;;;;;;;;;;;9.60;62.40;;;;;;5031361;28;20028;-75
2023/05/01 02:27:37;;;;;;;;;;;9.60;62.50;;;;;;5025257;28;19971;-74
2023/05/01 02:30:04;;;;;;;;;;;9.50;62.40;;;;;;5028143;28;19917;-76
2023/05/01 02:32:30;;;;;;;;;;;9.50;62.40;;;;;;5026156;28;19921;-75
2023/05/01 02:34:56;;;;;;;;;;;9.50;62.50;;;;;;5013184;28;19917;-75
2023/05/01 02:37:21;;;;;;;;;;;9.50;62.50;;;;;;5028444;28;19927;-76
2023/05/01 02:39:47;;;;;;;;;;;9.40;62.50;;;;;;5011556;28;19929;-76
2023/05/01 02:42:13;;;;;;;;;;;9.40;62.50;;;;;;5027066;28;19928;-75
2023/05/01 02:44:39;;;;;;;;;;;9.40;62.60;;;;;;5027780;28;19929;-75
2023/05/01 02:47:06;;;;;;;;;;;9.40;62.60;;;;;;5037748;28;20441;-76
2023/05/01 02:49:32;;;;;;;;;;;9.40;62.60;;;;;;5027440;28;20011;-75
2023/05/01 02:51:57;;;;;;;;;;;9.30;62.70;;;;;;5016640;28;20012;-76
2023/05/01 02:54:22;;;;;;;;;;;9.30;62.70;;;;;;5011269;28;20508;-76
2023/05/01 02:56:48;;;;;;;;;;;9.30;62.70;;;;;;5009986;28;19925;-75
2023/05/01 02:59:14;;;;;;;;;;;9.30;62.70;;;;;;5008640;28;19951;-75
2023/05/01 03:01:39;;;;;;;;;;;9.20;62.70;;;;;;4999704;28;19984;-75
2023/05/01 03:04:05;;;;;;;;;;;9.20;62.80;;;;;;5009001;28;20030;-77
2023/05/01 03:06:30;;;;;;;;;;;9.10;62.70;;;;;;5010946;28;19921;-76
2023/05/01 03:08:56;;;;;;;;;;;9.10;62.80;;;;;;4996442;28;20396;-77
2023/05/01 03:11:23;;;;;;;;;;;9.10;62.80;;;;;;5008680;28;19922;-75
2023/05/01 03:13:48;;;;;;;;;;;9.10;62.80;;;;;;5005811;28;19920;-75
2023/05/01 03:16:14;;;;;;;;;;;9.10;63.00;;;;;;5022353;28;20335;-75
2023/05/01 03:18:39;;;;;;;;;;;9.00;62.90;;;;;;5010685;28;19925;-77
2023/05/01 03:21:05;;;;;;;;;;;9.10;63.00;;;;;;5012899;28;20003;-77
2023/05/01 03:23:30;;;;;;;;;;;9.00;62.90;;;;;;5037291;28;19964;-77
2023/05/01 03:25:56;;;;;;;;;;;9.00;62.90;;;;;;5000875;28;19947;-77
2023/05/01 03:28:22;;;;;;;;;;;9.00;63.00;;;;;;5039629;28;19921;-76
2023/05/01 03:30:48;;;;;;;;;;;8.90;63.00;;;;;;5011811;28;20363;-77
2023/05/01 03:33:14;;;;;;;;;;;8.90;63.00;;;;;;4993945;28;20342;-77
2023/05/01 03:35:39;;;;;;;;;;;8.90;63.00;;;;;;5008352;28;19926;-77
2023/05/01 03:38:05;;;;;;;;;;;8.90;63.00;;;;;;5029654;28;19970;-77
2023/05/01 03:40:30;;;;;;;;;;;8.90;63.10;;;;;;4994939;28;20308;-77
2023/05/01 03:42:56;;;;;;;;;;;8.90;63.10;;;;;;5008712;28;20011;-77
2023/05/01 03:45:21;;;;;;;;;;;8.90;63.10;;;;;;5028878;28;19958;-77
2023/05/01 03:47:47;;;;;;;;;;;8.80;63.10;;;;;;5006991;28;19928;-77
2023/05/01 03:50:13;;;;;;;;;;;8.80;63.20;;;;;;5033282;28;19962;-77
2023/05/01 03:52:38;;;;;;;;;;;8.80;63.20;;;;;;5027843;28;20027;-77
2023/05/01 03:55:04;;;;;;;;;;;8.80;63.20;;;;;;5027801;28;19920;-76
2023/05/01 03:57:30;;;;;;;;;;;8.80;63.20;;;;;;5028818;28;19970;-76
2023/05/01 03:59:56;;;;;;;;;;;8.70;63.20;;;;;;5026949;28;23029;-76
2023/05/01 04:02:21;;;;;;;;;;;8.70;63.20;;;;;;5046288;28;19925;-76
2023/05/01 04:04:47;;;;;;;;;;;8.70;63.20;;;;;;5013852;28;20067;-74
2023/05/01 04:07:12;;;;;;;;;;;8.70;63.20;;;;;;5013649;28;19928;-76
2023/05/01 04:09:38;;;;;;;;;;;8.70;63.20;;;;;;5008250;28;19928;-76
2023/05/01 04:12:04;;;;;;;;;;;8.70;63.30;;;;;;5035757;28;19975;-76
2023/05/01 04:14:30;;;;;;;;;;;8.60;63.30;;;;;;5015796;28;20346;-75
2023/05/01 04:16:55;;;;;;;;;;;8.70;63.30;;;;;;5031034;28;20553;-76
2023/05/01 04:19:21;;;;;;;;;;;8.60;63.30;;;;;;5034091;28;19922;-77
2023/05/01 04:21:46;;;;;;;;;;;8.60;63.30;;;;;;5034397;28;19931;-76
2023/05/01 04:24:12;;;;;;;;;;;8.60;63.30;;;;;;5034198;28;20011;-76
2023/05/01 04:26:37;;;;;;;;;;;8.60;63.40;;;;;;5028936;28;21471;-76
2023/05/01 04:29:03;;;;;;;;;;;8.60;63.40;;;;;;5027213;28;19927;-76
2023/05/01 04:31:29;;;;;;;;;;;8.60;63.50;;;;;;5031120;28;20021;-76
2023/05/01 04:33:54;;;;;;;;;;;8.60;63.50;;;;;;5027998;28;19925;-76
2023/05/01 04:36:20;;;;;;;;;;;8.60;63.50;;;;;;5029669;28;19964;-76
2023/05/01 04:38:46;;;;;;;;;;;8.60;63.50;;;;;;5011938;28;20822;-76
2023/05/01 04:41:11;;;;;;;;;;;8.50;63.40;;;;;;5016486;28;19932;-76
2023/05/01 04:43:36;;;;;;;;;;;8.50;63.40;;;;;;5016399;28;20070;-77
2023/05/01 04:46:02;;;;;;;;;;;8.60;63.50;;;;;;5012340;28;19976;-76
2023/05/01 04:48:28;;;;;;;;;;;8.50;63.40;;;;;;5009444;28;19921;-76
2023/05/01 04:50:54;;;;;;;;;;;8.60;63.50;;;;;;5006829;28;19921;-76
2023/05/01 04:53:19;;;;;;;;;;;8.60;63.50;;;;;;5010233;28;19921;-76
2023/05/01 04:55:45;;;;;;;;;;;8.60;63.50;;;;;;4995731;28;19925;-77
2023/05/01 04:58:10;;;;;;;;;;;8.60;63.50;;;;;;4994755;28;19922;-77
2023/05/01 05:00:36;;;;;;;;;;;8.60;63.50;;;;;;5011129;28;19956;-77
2023/05/01 05:03:01;;;;;;;;;;;8.60;63.50;;;;;;5024579;28;19925;-77
2023/05/01 05:05:27;;;;;;;;;;;8.70;63.50;;;;;;5017610;28;19928;-77
2023/05/01 05:07:52;;;;;;;;;;;8.70;63.50;;;;;;5019263;28;19921;-77
2023/05/01 05:10:18;;;;;;;;;;;8.70;63.50;;;;;;5018061;28;19990;-77
2023/05/01 05:12:43;;;;;;;;;;;8.70;63.50;;;;;;5028682;28;20540;-76
2023/05/01 05:15:09;;;;;;;;;;;8.70;63.40;;;;;;5014075;28;19932;-77
2023/05/01 05:17:34;;;;;;;;;;;8.70;63.40;;;;;;5030687;28;19916;-76
2023/05/01 05:20:00;;;;;;;;;;;8.80;63.50;;;;;;5028242;28;20818;-76
2023/05/01 05:22:25;;;;;;;;;;;8.80;63.40;;;;;;5016364;28;19921;-77
2023/05/01 05:25:02;;;;;;;;;;;8.80;63.50;;;;;;5033353;28;19917;-76
2023/05/01 05:27:28;;;;;;;;;;;8.80;63.40;;;;;;5013508;28;20303;-77
2023/05/01 05:29:54;;;;;;;;;;;8.90;63.40;;;;;;5015669;28;19925;-77
2023/05/01 05:32:19;;;;;;;;;;;8.90;63.40;;;;;;5016090;28;19925;-76
2023/05/01 05:34:46;;;;;;;;;;;8.90;63.40;;;;;;4995036;28;20641;-76
2023/05/01 05:37:11;;;;;;;;;;;8.90;63.40;;;;;;5025300;28;19921;-77
2023/05/01 05:39:37;;;;;;;;;;;9.00;63.40;;;;;;5010455;28;19990;-77
2023/05/01 05:42:02;;;;;;;;;;;9.00;63.40;;;;;;5013663;28;19935;-76
2023/05/01 05:44:28;;;;;;;;;;;9.00;63.40;;;;;;5006635;28;19948;-77
2023/05/01 05:46:53;;;;;;;;;;;9.00;63.30;;;;;;5013177;28;19928;-77
2023/05/01 05:49:19;;;;;;;;;;;9.10;63.40;;;;;;5009489;28;20521;-77
2023/05/01 05:51:45;;;;;;;;;;;9.20;63.40;;;;;;5006212;28;19921;-77
2023/05/01 05:54:10;;;;;;;;;;;9.20;63.30;;;;;;5016564;28;20480;-77
2023/05/01 05:56:35;;;;;;;;;;;9.30;63.30;;;;;;5007918;28;19928;-77
2023/05/01 05:59:03;;;;;;;;;;;9.40;63.30;;;;;;5007287;28;19928;-77
2023/05/01 06:01:28;;;;;;;;;;;9.40;64.00;;;;;;5029040;28;20035;-77
2023/05/01 06:03:54;;;;;;;;;;;9.50;63.20;;;;;;5025655;28;20011;-77
2023/05/01 06:06:19;;;;;;;;;;;9.60;63.20;;;;;;5025240;28;19928;-77
2023/05/01 06:08:45;;;;;;;;;;;9.60;63.10;;;;;;5035208;28;19921;-77
2023/05/01 06:11:11;;;;;;;;;;;9.70;63.10;;;;;;5026931;28;19928;-76
2023/05/01 06:13:36;;;;;;;;;;;9.80;63.00;;;;;;5031417;28;19921;-77
2023/05/01 06:16:02;;;;;;;;;;;9.90;63.00;;;;;;5028802;28;19921;-77
2023/05/01 06:18:29;;;;;;;;;;;10.00;62.80;;;;;;5027427;28;19964;-77
2023/05/01 06:20:54;;;;;;;;;;;10.10;62.90;;;;;;5031325;28;20684;-77
2023/05/01 06:23:20;;;;;;;;;;;10.20;62.80;;;;;;5029692;28;19925;-77
2023/05/01 06:25:47;;;;;;;;;;;10.30;62.70;;;;;;5011978;28;19922;-76
2023/05/01 06:28:13;;;;;;;;;;;10.40;62.60;;;;;;5028595;28;20004;-77
2023/05/01 06:30:38;;;;;;;;;;;10.50;62.50;;;;;;5013043;28;20032;-77
2023/05/01 06:33:03;;;;;;;;;;;10.60;62.50;;;;;;5013736;28;19943;-77
2023/05/01 06:35:29;;;;;;;;;;;10.80;62.40;;;;;;5015363;28;19928;-75
2023/05/01 06:37:54;;;;;;;;;;;10.80;62.20;;;;;;5009402;28;19931;-77
2023/05/01 06:40:20;;;;;;;;;;;11.00;62.20;;;;;;5010442;28;20023;-77
2023/05/01 06:42:45;;;;;;;;;;;11.10;62.20;;;;;;5012450;28;19925;-76
2023/05/01 06:45:13;;;;;;;;;;;11.20;62.10;;;;;;4994108;28;20741;-77
2023/05/01 06:47:38;;;;;;;;;;;11.30;62.00;;;;;;5009351;28;19917;-77
2023/05/01 06:50:04;;;;;;;;;;;11.40;61.90;;;;;;5010032;28;19917;-78
2023/05/01 06:52:30;;;;;;;;;;;11.50;61.70;;;;;;5010208;28;19922;-76
2023/05/01 06:54:55;;;;;;;;;;;11.60;61.70;;;;;;5008088;28;19940;-77
2023/05/01 06:57:21;;;;;;;;;;;11.70;61.60;;;;;;5009177;28;20623;-77
2023/05/01 06:59:46;;;;;;;;;;;11.80;61.60;;;;;;5004233;28;19928;-77
2023/05/01 07:02:12;;;;;;;;;;;11.90;61.40;;;;;;5006683;28;19925;-77
2023/05/01 07:04:37;;;;;;;;;;;12.00;61.50;;;;;;5011489;28;19921;-76
2023/05/01 07:07:03;;;;;;;;;;;12.00;61.30;;;;;;5007639;28;19967;-77
2023/05/01 07:09:28;;;;;;;;;;;12.10;61.30;;;;;;5007003;28;20418;-76
2023/05/01 07:11:55;;;;;;;;;;;12.20;61.20;;;;;;5009143;28;19933;-76
2023/05/01 07:14:21;;;;;;;;;;;12.30;61.20;;;;;;5006749;28;19929;-77
2023/05/01 07:16:47;;;;;;;;;;;12.40;61.20;;;;;;5005697;28;19921;-77
2023/05/01 07:19:12;;;;;;;;;;;12.50;61.10;;;;;;5019766;28;19963;-77
2023/05/01 07:21:39;;;;;;;;;;;12.50;61.00;;;;;;5012151;28;19975;-77
2023/05/01 07:24:04;;;;;;;;;;;12.60;61.00;;;;;;5005200;28;19957;-77
2023/05/01 07:26:30;;;;;;;;;;;12.70;60.90;;;;;;5010365;28;20052;-77
2023/05/01 07:28:55;;;;;;;;;;;12.80;60.80;;;;;;5008963;28;19921;-77
2023/05/01 07:31:21;;;;;;;;;;;12.90;60.80;;;;;;5010520;28;20386;-77
2023/05/01 07:33:47;;;;;;;;;;;13.00;60.70;;;;;;5008131;28;19928;-77
2023/05/01 07:36:13;;;;;;;;;;;13.00;60.60;;;;;;5006211;28;19921;-77
2023/05/01 07:38:39;;;;;;;;;;;13.10;60.50;;;;;;4998526;28;19922;-77
2023/05/01 07:41:05;;;;;;;;;;;13.20;60.40;;;;;;5011211;28;19978;-77
2023/05/01 07:43:30;;;;;;;;;;;13.30;60.40;;;;;;5013176;28;19921;-77
2023/05/01 07:45:57;;;;;;;;;;;13.40;60.40;;;;;;5002223;28;20307;-77
2023/05/01 07:48:22;;;;;;;;;;;13.50;60.30;;;;;;5007134;28;20002;-77
2023/05/01 07:50:48;;;;;;;;;;;13.60;60.20;;;;;;5014490;28;20444;-77
2023/05/01 07:53:13;;;;;;;;;;;13.70;60.20;;;;;;4997702;28;20123;-77
2023/05/01 07:55:39;;;;;;;;;;;13.70;60.10;;;;;;5012305;28;19929;-77
2023/05/01 07:58:05;;;;;;;;;;;13.80;60.00;;;;;;4995578;28;19921;-77
2023/05/01 08:00:30;;;;;;;;;;;13.90;60.00;;;;;;5011388;28;19922;-77
2023/05/01 08:02:56;;;;;;;;;;;13.90;59.90;;;;;;5008650;28;19922;-77
2023/05/01 08:05:21;;;;;;;;;;;14.10;59.90;;;;;;5007589;28;20012;-78
2023/05/01 08:07:47;;;;;;;;;;;14.10;59.90;;;;;;5011285;28;20551;-77
2023/05/01 08:10:12;;;;;;;;;;;14.20;59.70;;;;;;5011537;28;19921;-76
2023/05/01 08:12:38;;;;;;;;;;;14.20;59.70;;;;;;4995112;28;19917;-77
2023/05/01 08:15:04;;;;;;;;;;;14.30;59.70;;;;;;4996663;28;19952;-77
2023/05/01 08:17:29;;;;;;;;;;;14.40;59.60;;;;;;4992812;28;19931;-77
2023/05/01 08:19:55;;;;;;;;;;;14.40;59.50;;;;;;5008180;28;20020;-77
2023/05/01 08:22:21;;;;;;;;;;;14.50;59.50;;;;;;5010551;28;20392;-77
2023/05/01 08:24:47;;;;;;;;;;;14.60;59.50;;;;;;5013478;28;19921;-77
2023/05/01 08:27:12;;;;;;;;;;;14.70;59.40;;;;;;4995068;28;19979;-77
2023/05/01 08:29:38;;;;;;;;;;;14.80;59.40;;;;;;4995091;28;20376;-77
2023/05/01 08:32:03;;;;;;;;;;;14.80;59.30;;;;;;5010878;28;19926;-77
2023/05/01 08:34:29;;;;;;;;;;;14.90;59.20;;;;;;5007054;28;20023;-76
2023/05/01 08:36:54;;;;;;;;;;;15.00;59.20;;;;;;5007121;28;20323;-77
2023/05/01 08:39:20;;;;;;;;;;;15.10;59.10;;;;;;5006917;28;20024;-77
2023/05/01 08:41:45;;;;;;;;;;;15.10;59.10;;;;;;5008533;28;19932;-77
2023/05/01 08:44:12;;;;;;;;;;;15.20;59.10;;;;;;5010872;28;20422;-78
2023/05/01 08:47:00;;;;;;;;;;;15.20;59.30;;;;;;5018443;28;19921;-77
2023/05/01 08:49:26;;;;;;;;;;;15.30;59.00;;;;;;5023293;28;19927;-77
2023/05/01 08:51:51;;;;;;;;;;;15.30;59.00;;;;;;5023416;28;20576;-77
2023/05/01 08:54:18;;;;;;;;;;;15.30;58.90;;;;;;5030972;28;19928;-77
2023/05/01 08:56:43;;;;;;;;;;;15.40;58.90;;;;;;5014942;28;19932;-77
2023/05/01 08:59:09;;;;;;;;;;;15.50;58.80;;;;;;5005690;28;19926;-77
2023/05/01 09:01:35;;;;;;;;;;;15.50;58.80;;;;;;5015425;28;19967;-77
2023/05/01 09:04:01;;;;;;;;;;;15.60;58.70;;;;;;5010797;28;20639;-77
2023/05/01 09:06:28;;;;;;;;;;;15.60;58.70;;;;;;5044229;28;19932;-77
2023/05/01 09:08:53;;;;;;;;;;;15.70;58.70;;;;;;5027389;28;19921;-75
2023/05/01 09:11:20;;;;;;;;;;;15.70;58.70;;;;;;5018719;28;19927;-77
2023/05/01 09:13:45;;;;;;;;;;;15.80;58.60;;;;;;5028520;28;19920;-77
2023/05/01 09:16:11;;;;;;;;;;;15.80;58.60;;;;;;5017499;28;20314;-77
2023/05/01 09:18:37;;;;;;;;;;;15.90;58.60;;;;;;5030934;28;19953;-77
2023/05/01 09:21:02;;;;;;;;;;;15.90;58.60;;;;;;5030569;28;19928;-77
2023/05/01 09:23:28;;;;;;;;;;;15.90;58.50;;;;;;5022938;28;19928;-77
2023/05/01 09:25:54;;;;;;;;;;;16.00;58.60;;;;;;5034009;28;19921;-78
2023/05/01 09:28:38;;;;;;;;;;;16.00;58.60;;;;;;5029882;28;20710;-77
2023/05/01 09:31:14;;;;;;;;;;;16.00;58.50;;;;;;5037704;28;19921;-77
2023/05/01 09:33:48;;;;;;;;;;;16.10;58.50;;;;;;5016998;28;19968;-77
2023/05/01 09:36:16;;;;;;;;;;;16.10;58.40;;;;;;5030492;28;19928;-78
2023/05/01 09:38:41;;;;;;;;;;;16.20;58.40;;;;;;5014634;28;19921;-77
2023/05/01 09:41:07;;;;;;;;;;;16.20;58.40;;;;;;5030479;28;19928;-77
2023/05/01 09:43:33;;;;;;;;;;;16.20;58.30;;;;;;5018711;28;20007;-77
2023/05/01 09:45:59;;;;;;;;;;;16.20;58.30;;;;;;5025258;28;20415;-77
2023/05/01 09:48:24;;;;;;;;;;;16.30;58.40;;;;;;5021011;28;20387;-77
2023/05/01 09:50:50;;;;;;;;;;;16.30;58.30;;;;;;5023287;28;19974;-77
2023/05/01 09:53:15;;;;;;;;;;;16.20;58.30;;;;;;5029621;28;20303;-78
2023/05/01 09:55:41;;;;;;;;;;;16.20;58.30;;;;;;5026400;28;19956;-77
2023/05/01 09:58:06;;;;;;;;;;;16.20;58.30;;;;;;5026959;28;19940;-77
2023/05/01 10:00:32;;;;;;;;;;;16.20;58.30;;;;;;5019605;28;19960;-77
2023/05/01 10:02:57;;;;;;;;;;;16.30;58.40;;;;;;5005390;28;19976;-76
2023/05/01 10:05:23;;;;;;;;;;;16.30;58.30;;;;;;4999646;28;19917;-77
2023/05/01 10:07:57;;;;;;;;;;;16.30;58.30;;;;;;5008705;28;20034;-77
2023/05/01 10:10:22;;;;;;;;;;;16.30;58.30;;;;;;5043402;28;20375;-76
2023/05/01 10:12:48;;;;;;;;;;;16.40;58.30;;;;;;5009037;28;19921;-77
2023/05/01 10:15:13;;;;;;;;;;;16.40;58.30;;;;;;5009411;28;20008;-77
2023/05/01 10:17:40;;;;;;;;;;;16.40;58.20;;;;;;5015486;28;19936;-76
2023/05/01 10:20:06;;;;;;;;;;;16.40;58.20;;;;;;4993891;28;19928;-77
2023/05/01 10:22:31;;;;;;;;;;;16.40;58.20;;;;;;5010212;28;19940;-76
2023/05/01 10:24:58;;;;;;;;;;;16.50;58.30;;;;;;5008781;28;19921;-77
2023/05/01 10:27:23;;;;;;;;;;;16.50;58.20;;;;;;5002841;28;19921;-77
2023/05/01 10:29:50;;;;;;;;;;;16.50;58.20;;;;;;4997873;28;19932;-76
2023/05/01 10:32:15;;;;;;;;;;;16.50;58.20;;;;;;5011467;28;20555;-77
2023/05/01 10:34:42;;;;;;;;;;;16.50;58.10;;;;;;5009296;28;19921;-77
2023/05/01 10:37:20;;;;;;;;;;;16.60;58.10;;;;;;5025658;28;19960;-77
2023/05/01 10:39:46;;;;;;;;;;;16.60;58.10;;;;;;5025325;28;19973;-76
2023/05/01 10:42:14;;;;;;;;;;;16.60;58.00;;;;;;5004933;28;19924;-77
2023/05/01 10:44:40;;;;;;;;;;;16.70;58.00;;;;;;5007346;28;19928;-76
2023/05/01 10:47:24;;;;;;;;;;;16.70;58.00;;;;;;5012452;28;19960;-76
2023/05/01 10:50:06;;;;;;;;;;;16.70;58.00;;;;;;5028732;28;19981;-76
2023/05/01 10:52:50;;;;;;;;;;;16.70;58.00;;;;;;5025802;28;19921;-76
2023/05/01 10:55:31;;;;;;;;;;;16.70;58.00;;;;;;5037228;28;19921;-76
2023/05/01 10:57:57;;;;;;;;;;;16.70;58.00;;;;;;5016911;28;19917;-76
2023/05/01 11:00:22;;;;;;;;;;;16.80;58.00;;;;;;5039136;28;19928;-76
2023/05/01 11:02:48;;;;;;;;;;;16.80;58.00;;;;;;5025752;28;19931;-76
2023/05/01 11:05:13;;;;;;;;;;;16.80;57.90;;;;;;5024647;28;19921;-76
2023/05/01 11:07:39;;;;;;;;;;;16.80;57.90;;;;;;5029910;28;19928;-74
2023/05/01 11:10:05;;;;;;;;;;;16.90;57.90;;;;;;5019119;28;19983;-76
2023/05/01 11:12:45;;;;;;;;;;;16.90;58.00;;;;;;5010985;28;20679;-76
2023/05/01 11:15:12;;;;;;;;;;;16.90;57.90;;;;;;5015160;28;19925;-76
2023/05/01 11:17:40;;;;;;;;;;;16.90;57.80;;;;;;5009594;28;19922;-76
2023/05/01 11:20:06;;;;;;;;;;;16.90;57.90;;;;;;5017252;28;20004;-77
2023/05/01 11:22:32;;;;;;;;;;;16.90;57.80;;;;;;5009938;28;19925;-77
2023/05/01 11:24:57;;;;;;;;;;;16.90;57.90;;;;;;5013034;28;19921;-76
2023/05/01 11:27:23;;;;;;;;;;;16.90;57.90;;;;;;5028047;28;19928;-77
2023/05/01 11:29:48;;;;;;;;;;;16.90;57.80;;;;;;5032124;28;19927;-76
2023/05/01 11:32:15;;;;;;;;;;;16.90;57.80;;;;;;5029014;28;19948;-77
2023/05/01 11:34:40;;;;;;;;;;;17.00;57.90;;;;;;5012866;28;20395;-77
2023/05/01 11:37:06;;;;;;;;;;;17.00;57.80;;;;;;5028357;28;19921;-77
2023/05/01 11:39:31;;;;;;;;;;;17.00;57.80;;;;;;5011920;28;20032;-77
2023/05/01 11:42:07;;;;;;;;;;;17.00;57.80;;;;;;5013551;28;19932;-77
2023/05/01 11:44:32;;;;;;;;;;;17.00;57.80;;;;;;5040249;28;19975;-76
2023/05/01 11:47:00;;;;;;;;;;;17.00;57.80;;;;;;5033783;28;19925;-77
2023/05/01 11:49:28;;;;;;;;;;;17.00;57.80;;;;;;5023737;28;19954;-77
2023/05/01 11:51:57;;;;;;;;;;;17.10;57.80;;;;;;5014797;28;19922;-77
2023/05/01 11:54:22;;;;;;;;;;;17.10;57.80;;;;;;5002879;28;20300;-77
2023/05/01 11:56:48;;;;;;;;;;;17.10;57.70;;;;;;4997944;28;19921;-77
2023/05/01 11:59:17;;;;;;;;;;;17.10;57.70;;;;;;5028006;28;19964;-76
2023/05/01 12:01:43;;;;;;;;;;;17.10;57.70;;;;;;5023626;28;19928;-77
2023/05/01 12:04:11;;;;;;;;;;;17.10;57.70;;;;;;5027408;28;19925;-77
2023/05/01 12:06:46;;;;;;;;;;;17.20;57.70;;;;;;5014655;28;19925;-77
2023/05/01 12:09:14;;;;;;;;;;;17.20;57.70;;;;;;5019969;28;19971;-77
2023/05/01 12:11:40;;;;;;;;;;;17.20;57.70;;;;;;5028517;28;20012;-76
2023/05/01 12:14:05;;;;;;;;;;;17.20;57.70;;;;;;5035891;28;20020;-77
2023/05/01 12:16:31;;;;;;;;;;;17.20;57.60;;;;;;5035779;28;19921;-76
2023/05/01 12:18:56;;;;;;;;;;;17.20;57.60;;;;;;5024112;28;19995;-77
2023/05/01 12:21:24;;;;;;;;;;;17.30;57.70;;;;;;5029343;28;19932;-77
2023/05/01 12:23:49;;;;;;;;;;;17.20;57.60;;;;;;5031798;28;19924;-77
2023/05/01 12:26:16;;;;;;;;;;;17.20;57.60;;;;;;5030289;28;19927;-77
2023/05/01 12:28:52;;;;;;;;;;;17.20;58.30;;;;;;5043199;28;19925;-77
2023/05/01 12:31:19;;;;;;;;;;;17.30;57.60;;;;;;5029875;28;19999;-77
2023/05/01 12:33:51;;;;;;;;;;;17.30;57.60;;;;;;5026792;28;19956;-77
2023/05/01 12:36:17;;;;;;;;;;;17.30;57.60;;;;;;5032400;28;20425;-77
2023/05/01 12:38:51;;;;;;;;;;;17.30;57.60;;;;;;5032240;28;19921;-77
2023/05/01 12:41:16;;;;;;;;;;;17.30;57.60;;;;;;5024597;28;19929;-77
2023/05/01 12:43:42;;;;;;;;;;;17.40;57.60;;;;;;5032943;28;19921;-77
2023/05/01 12:46:12;;;;;;;;;;;17.40;57.50;;;;;;5029205;28;19956;-76
2023/05/01 12:48:37;;;;;;;;;;;17.40;57.50;;;;;;5028949;28;20015;-77
2023/05/01 12:51:03;;;;;;;;;;;17.40;57.50;;;;;;5034095;28;19953;-77
2023/05/01 12:53:29;;;;;;;;;;;17.40;57.60;;;;;;5029721;28;19921;-77
2023/05/01 12:55:55;;;;;;;;;;;17.40;57.50;;;;;;5013123;28;19925;-77
2023/05/01 12:58:21;;;;;;;;;;;17.40;57.50;;;;;;5031894;28;19925;-77
2023/05/01 13:00:50;;;;;;;;;;;17.40;57.50;;;;;;5026700;28;19921;-77
2023/05/01 13:03:19;;;;;;;;;;;17.40;57.50;;;;;;5014175;28;19980;-77
2023/05/01 13:05:51;;;;;;;;;;;17.40;57.50;;;;;;5029519;28;19960;-77
2023/05/01 13:08:32;;;;;;;;;;;17.40;57.50;;;;;;5032730;28;19921;-77
2023/05/01 13:10:58;;;;;;;;;;;17.40;57.50;;;;;;5009254;28;19921;-77
2023/05/01 13:13:29;;;;;;;;;;;17.40;57.60;;;;;;5026248;28;19929;-77
2023/05/01 13:16:04;;;;;;;;;;;17.40;57.50;;;;;;5006163;28;19925;-76
2023/05/01 13:18:30;;;;;;;;;;;17.40;57.50;;;;;;5030317;28;20021;-76
2023/05/01 13:20:56;;;;;;;;;;;17.30;57.50;;;;;;5041624;28;19956;-77
2023/05/01 13:23:21;;;;;;;;;;;17.30;57.60;;;;;;5029045;28;20336;-77
2023/05/01 13:25:47;;;;;;;;;;;17.30;57.60;;;;;;5029726;28;19925;-77
2023/05/01 13:28:16;;;;;;;;;;;17.30;57.60;;;;;;5030190;28;19920;-77
2023/05/01 13:30:42;;;;;;;;;;;17.30;57.60;;;;;;5026201;28;19996;-77
2023/05/01 13:33:08;;;;;;;;;;;17.30;57.60;;;;;;5034437;28;20061;-77
2023/05/01 13:35:34;;;;;;;;;;;17.30;57.60;;;;;;5004738;28;19920;-77
2023/05/01 13:38:00;;;;;;;;;;;17.30;57.60;;;;;;5040068;28;20395;-77
2023/05/01 13:40:25;;;;;;;;;;;17.40;57.60;;;;;;5034326;28;19982;-77
2023/05/01 13:42:51;;;;;;;;;;;17.40;57.60;;;;;;5032098;28;20359;-77
2023/05/01 13:45:17;;;;;;;;;;;17.40;57.60;;;;;;5045477;28;20609;-77
2023/05/01 13:47:43;;;;;;;;;;;17.40;57.60;;;;;;5022200;28;20007;-77
2023/05/01 13:50:09;;;;;;;;;;;17.40;57.50;;;;;;5033444;28;20004;-77
2023/05/01 13:52:39;;;;;;;;;;;17.50;57.60;;;;;;5036879;28;19928;-77
2023/05/01 13:55:05;;;;;;;;;;;17.50;57.50;;;;;;5043589;28;19925;-77
2023/05/01 13:57:30;;;;;;;;;;;17.50;57.60;;;;;;5032440;28;19931;-76
2023/05/01 13:59:55;;;;;;;;;;;17.50;57.50;;;;;;5027366;28;19929;-77
2023/05/01 14:02:27;;;;;;;;;;;17.50;57.50;;;;;;5033365;28;20561;-78
2023/05/01 14:04:53;;;;;;;;;;;17.60;57.50;;;;;;5030337;28;19995;-77
2023/05/01 14:07:22;;;;;;;;;;;17.70;57.50;;;;;;5016124;28;19942;-77
2023/05/01 14:09:54;;;;;;;;;;;17.70;57.40;;;;;;5027282;28;19924;-77
2023/05/01 14:15:23;;;;;;;;;;;17.80;57.20;;;;;;5024541;28;19928;-77
2023/05/01 14:17:49;;;;;;;;;;;18.00;57.20;;;;;;5027174;28;19921;-77
2023/05/01 14:20:14;;;;;;;;;;;18.10;57.20;;;;;;5030453;28;20011;-77
2023/05/01 14:22:44;;;;;;;;;;;18.30;57.10;;;;;;5031799;28;19964;-77